createdAt,value
2022-09-28T00:02:14.820Z,10.49
2022-09-28T00:04:42.922Z,10.18
2022-09-28T00:07:10.804Z,10.03
2022-09-28T00:09:40.059Z,9.78
2022-09-28T00:12:08.354Z,9.86
2022-09-28T00:14:37.138Z,10.69
2022-09-28T00:17:05.389Z,10.67
2022-09-28T00:19:33.966Z,10.82
2022-09-28T00:22:02.221Z,10.78
2022-09-28T00:24:30.515Z,10.59
2022-09-28T00:27:02.963Z,10.62
2022-09-28T00:29:32.675Z,10.52
2022-09-28T00:32:03.475Z,10.07
2022-09-28T00:34:34.614Z,9.87
2022-09-28T00:37:04.631Z,9.69
2022-09-28T00:39:32.794Z,9.86
2022-09-28T00:42:02.515Z,9.88
2022-09-28T00:44:41.663Z,9.64
2022-09-28T00:47:39.467Z,9.71
2022-09-28T00:50:14.427Z,9.69
2022-09-28T00:52:50.075Z,9.66
2022-09-28T00:55:22.092Z,10.03
2022-09-28T00:57:55.618Z,9.44
2022-09-28T01:00:23.951Z,10.02
2022-09-28T01:02:53.218Z,9.84
2022-09-28T01:05:23.213Z,9.92
2022-09-28T01:07:52.420Z,9.75
2022-09-28T01:10:20.273Z,9.87
2022-09-28T01:12:48.706Z,9.72
2022-09-28T01:15:18.298Z,9.62
2022-09-28T01:18:01.299Z,9.78
2022-09-28T01:20:41.986Z,9.64
2022-09-28T01:23:54.994Z,9.59
2022-09-28T01:27:04.644Z,9.58
2022-09-28T01:29:44.750Z,9.52
2022-09-28T01:32:25.363Z,9.54
2022-09-28T01:34:58.871Z,9.34
2022-09-28T01:37:36.497Z,9.41
2022-09-28T01:40:08.297Z,9.35
2022-09-28T01:42:39.331Z,9.61
2022-09-28T01:45:15.491Z,9.35
2022-09-28T01:47:46.969Z,9.21
2022-09-28T01:50:18.788Z,9.16
2022-09-28T01:52:53.418Z,9.29
2022-09-28T01:55:29.465Z,9.07
2022-09-28T01:58:01.898Z,9.03
2022-09-28T02:00:31.512Z,8.91
2022-09-28T02:03:07.263Z,9.00
2022-09-28T02:05:37.938Z,8.77
2022-09-28T02:08:10.797Z,8.77
2022-09-28T02:10:43.568Z,8.79
2022-09-28T02:13:17.592Z,8.92
2022-09-28T02:15:55.177Z,9.11
2022-09-28T02:18:23.522Z,8.85
2022-09-28T02:20:59.051Z,8.89
2022-09-28T02:23:29.988Z,8.78
2022-09-28T02:26:03.178Z,8.74
2022-09-28T02:28:31.961Z,8.75
2022-09-28T02:31:02.354Z,8.77
2022-09-28T02:33:35.588Z,8.70
2022-09-28T02:36:04.648Z,8.74
2022-09-28T02:38:33.622Z,8.81
2022-09-28T02:41:07.004Z,8.72
2022-09-28T02:43:45.714Z,8.84
2022-09-28T02:46:23.403Z,8.82
2022-09-28T02:49:21.420Z,8.97
2022-09-28T02:52:27.846Z,8.78
2022-09-28T02:55:14.435Z,8.80
2022-09-28T02:57:57.477Z,8.72
2022-09-28T03:00:25.635Z,8.85
2022-09-28T03:03:03.247Z,8.87
2022-09-28T03:05:37.465Z,8.95
2022-09-28T03:08:13.296Z,8.83
2022-09-28T03:10:46.238Z,9.11
2022-09-28T03:13:16.790Z,9.02
2022-09-28T03:15:48.612Z,9.03
2022-09-28T03:18:18.640Z,9.06
2022-09-28T03:20:47.544Z,8.77
2022-09-28T03:23:31.218Z,8.79
2022-09-28T03:25:59.544Z,8.65
2022-09-28T03:28:28.273Z,-142.05
2022-09-28T03:30:59.154Z,-142.05
2022-09-28T03:33:28.209Z,-142.05
2022-09-28T03:35:55.909Z,-142.05
2022-09-28T03:38:23.953Z,-142.05
2022-09-28T03:40:55.525Z,-142.05
2022-09-28T03:43:23.670Z,-142.05
2022-09-28T03:45:55.191Z,-142.05
2022-09-28T03:48:27.734Z,-142.05
2022-09-28T03:51:02.328Z,-142.05
2022-09-28T03:53:30.943Z,-142.05
2022-09-28T03:56:04.514Z,-142.05
2022-09-28T03:58:32.599Z,-142.05
2022-09-28T04:01:03.933Z,-142.05
2022-09-28T04:03:32.295Z,-142.05
2022-09-28T04:06:02.005Z,-142.05
2022-09-28T04:08:30.262Z,-142.05
2022-09-28T04:10:58.622Z,-142.05
2022-09-28T04:13:27.057Z,-142.05
2022-09-28T04:15:56.021Z,-142.05
2022-09-28T04:18:24.836Z,-142.05
2022-09-28T04:21:06.722Z,-142.05
2022-09-28T04:23:36.231Z,-142.05
2022-09-28T04:26:04.785Z,-142.05
2022-09-28T04:28:50.181Z,-142.05
2022-09-28T04:31:19.691Z,-142.05
2022-09-28T04:33:47.424Z,-142.05
2022-09-28T04:36:16.417Z,-142.05
2022-09-28T04:38:59.364Z,-142.05
2022-09-28T04:41:28.060Z,-142.05
2022-09-28T04:43:56.197Z,-142.05
2022-09-28T04:46:23.824Z,-142.05
2022-09-28T04:48:51.513Z,-142.05
2022-09-28T04:51:20.493Z,-142.05
2022-09-28T04:53:48.271Z,-142.05
2022-09-28T04:56:17.820Z,-142.05
2022-09-28T04:58:51.772Z,-142.05
2022-09-28T05:01:23.497Z,-142.05
2022-09-28T05:03:51.657Z,-142.05
2022-09-28T05:06:22.623Z,-142.05
2022-09-28T05:08:50.757Z,-142.05
2022-09-28T05:11:19.818Z,-142.05
2022-09-28T05:13:48.793Z,-142.05
2022-09-28T05:16:17.004Z,-142.05
2022-09-28T05:18:45.068Z,-142.05
2022-09-28T05:21:13.702Z,-142.05
2022-09-28T05:23:47.606Z,-142.05
2022-09-28T05:26:15.364Z,-142.05
2022-09-28T05:28:44.964Z,-142.05
2022-09-28T05:31:12.801Z,-142.05
2022-09-28T05:33:40.868Z,-142.05
2022-09-28T05:36:10.807Z,-142.05
2022-09-28T05:38:39.577Z,-142.05
2022-09-28T05:41:09.224Z,-142.05
2022-09-28T05:43:38.714Z,-142.05
2022-09-28T05:46:07.331Z,-142.05
2022-09-28T05:48:35.488Z,-142.05
2022-09-28T05:51:03.233Z,-142.05
2022-09-28T05:53:31.293Z,-142.05
2022-09-28T05:55:59.362Z,-142.05
2022-09-28T05:58:29.025Z,-142.05
2022-09-28T06:00:57.277Z,-142.05
2022-09-28T06:03:25.624Z,-142.05
2022-09-28T06:05:53.750Z,-142.05
2022-09-28T06:08:21.948Z,-142.05
2022-09-28T06:10:49.704Z,-142.05
2022-09-28T06:13:17.771Z,-142.05
2022-09-28T06:15:47.469Z,-142.05
2022-09-28T06:18:18.500Z,-142.05
2022-09-28T06:20:46.180Z,-142.05
2022-09-28T06:23:14.761Z,-142.05
2022-09-28T06:25:42.591Z,-142.05
2022-09-28T06:28:12.316Z,-142.05
2022-09-28T06:30:40.683Z,-142.05
2022-09-28T06:33:15.297Z,-142.05
2022-09-28T06:44:17.779Z,23.49
2022-09-28T06:46:45.852Z,23.54
2022-09-28T06:49:18.655Z,23.61
2022-09-28T06:51:47.724Z,23.46
2022-09-28T06:54:16.220Z,23.99
2022-09-28T06:56:44.284Z,23.72
2022-09-28T06:59:12.078Z,23.04
2022-09-28T07:01:44.526Z,21.77
2022-09-28T07:04:12.258Z,22.70
2022-09-28T07:06:40.379Z,23.92
2022-09-28T07:09:27.102Z,23.54
2022-09-28T07:11:56.404Z,23.62
2022-09-28T07:14:40.443Z,23.76
2022-09-28T07:17:14.894Z,23.86
2022-09-28T07:19:43.031Z,23.90
2022-09-28T07:22:18.384Z,23.97
2022-09-28T07:24:47.286Z,24.03
2022-09-28T07:27:15.622Z,24.07
2022-09-28T07:29:43.520Z,24.17
2022-09-28T07:32:13.364Z,24.20
2022-09-28T07:34:43.784Z,24.27
2022-09-28T07:37:12.838Z,24.31
2022-09-28T07:39:54.687Z,24.33
2022-09-28T07:42:22.828Z,24.34
2022-09-28T07:44:51.320Z,24.34
2022-09-28T07:47:30.780Z,24.53
2022-09-28T07:50:00.133Z,24.53
2022-09-28T07:52:30.601Z,24.52
2022-09-28T07:54:59.795Z,24.54
2022-09-28T07:57:30.362Z,24.55
2022-09-28T07:59:58.530Z,24.55
2022-09-28T08:02:28.112Z,24.57
2022-09-28T08:04:56.361Z,24.55
2022-09-28T08:07:26.069Z,24.54
2022-09-28T08:09:53.796Z,24.54
2022-09-28T08:12:22.738Z,24.55
2022-09-28T08:14:52.149Z,24.58
2022-09-28T08:17:19.872Z,24.59
2022-09-28T08:20:06.920Z,24.59
2022-09-28T08:22:34.946Z,24.59
2022-09-28T08:25:02.598Z,24.64
2022-09-28T08:27:30.707Z,24.69
2022-09-28T08:29:59.787Z,24.74
2022-09-28T08:32:28.292Z,24.77
2022-09-28T08:34:57.732Z,24.84
2022-09-28T08:37:25.429Z,24.87
2022-09-28T08:39:53.412Z,24.90
2022-09-28T08:42:35.318Z,24.94
2022-09-28T08:45:10.057Z,24.94
2022-09-28T08:48:07.167Z,24.94
2022-09-28T08:50:48.319Z,24.93
2022-09-28T08:53:35.391Z,24.92
2022-09-28T08:56:07.245Z,24.91
2022-09-28T08:58:39.083Z,24.91
2022-09-28T09:01:11.768Z,24.90
2022-09-28T09:03:46.398Z,24.92
2022-09-28T09:06:26.183Z,24.94
2022-09-28T09:09:05.400Z,24.95
2022-09-28T09:11:55.424Z,24.96
2022-09-28T09:15:00.661Z,24.96
2022-09-28T09:17:40.365Z,24.98
2022-09-28T09:20:19.428Z,22.47
2022-09-28T09:23:01.534Z,20.56
2022-09-28T09:25:38.600Z,19.90
2022-09-28T09:28:40.650Z,18.19
2022-09-28T09:31:24.317Z,17.33
2022-09-28T09:34:15.826Z,16.84
2022-09-28T09:37:00.724Z,17.00
2022-09-28T09:39:45.727Z,16.94
2022-09-28T09:42:30.053Z,17.16
2022-09-28T09:45:28.720Z,17.80
2022-09-28T09:48:02.575Z,18.18
2022-09-28T09:50:35.132Z,18.28
2022-09-28T09:53:08.315Z,18.23
2022-09-28T09:55:43.252Z,17.49
2022-09-28T09:58:17.530Z,17.43
2022-09-28T10:00:49.130Z,16.71
2022-09-28T10:03:23.210Z,16.83
2022-09-28T10:05:59.276Z,16.17
2022-09-28T10:08:29.738Z,16.09
2022-09-28T10:11:09.986Z,16.66
2022-09-28T10:13:38.241Z,16.37
2022-09-28T10:16:07.337Z,17.45
2022-09-28T10:18:35.948Z,17.41
2022-09-28T10:21:04.442Z,16.73
2022-09-28T10:23:35.289Z,18.00
2022-09-28T10:26:09.260Z,17.95
2022-09-28T10:28:46.360Z,18.71
2022-09-28T10:31:40.266Z,18.14
2022-09-28T10:34:09.780Z,18.58
2022-09-28T10:36:52.678Z,19.36
2022-09-28T10:39:31.668Z,19.42
2022-09-28T10:42:04.455Z,18.66
2022-09-28T10:44:34.657Z,18.59
2022-09-28T10:47:05.240Z,18.30
2022-09-28T10:49:45.869Z,18.27
2022-09-28T10:52:34.041Z,17.67
2022-09-28T10:55:02.675Z,18.01
2022-09-28T10:57:36.684Z,18.48
2022-09-28T11:00:06.945Z,17.98
2022-09-28T11:02:37.987Z,18.61
2022-09-28T11:05:08.095Z,18.61
2022-09-28T11:07:46.746Z,18.97
2022-09-28T11:10:21.966Z,18.93
2022-09-28T11:12:55.260Z,19.01
2022-09-28T11:15:28.412Z,18.09
2022-09-28T11:17:56.356Z,18.28
2022-09-28T11:20:35.978Z,17.71
2022-09-28T11:23:20.713Z,18.33
2022-09-28T11:26:05.695Z,19.46
2022-09-28T11:28:37.410Z,18.72
2022-09-28T11:31:07.230Z,18.87
2022-09-28T11:33:38.739Z,18.90
2022-09-28T11:36:19.575Z,19.02
2022-09-28T11:39:00.745Z,19.37
2022-09-28T11:41:49.235Z,19.05
2022-09-28T11:44:45.048Z,19.08
2022-09-28T11:47:46.820Z,18.72
2022-09-28T11:50:24.274Z,17.85
2022-09-28T11:53:00.817Z,16.63
2022-09-28T11:55:36.272Z,16.66
2022-09-28T11:58:11.587Z,15.94
2022-09-28T12:00:46.670Z,16.03
2022-09-28T12:03:19.607Z,16.50
2022-09-28T12:05:52.709Z,16.21
2022-09-28T12:08:25.550Z,16.97
2022-09-28T12:10:59.077Z,17.60
2022-09-28T12:13:29.807Z,17.61
2022-09-28T12:16:45.314Z,17.27
2022-09-28T12:18:54.978Z,17.32
2022-09-28T12:21:34.492Z,18.36
2022-09-28T12:24:08.946Z,18.59
2022-09-28T12:26:43.499Z,19.48
2022-09-28T12:29:15.940Z,20.03
2022-09-28T12:31:56.864Z,19.77
2022-09-28T12:34:24.525Z,18.76
2022-09-28T12:37:06.344Z,19.15
2022-09-28T12:39:57.710Z,18.82
2022-09-28T12:42:46.882Z,19.17
2022-09-28T12:45:47.886Z,19.21
2022-09-28T12:49:33.161Z,18.94
2022-09-28T12:51:48.982Z,18.84
2022-09-28T12:54:48.844Z,18.55
2022-09-28T12:57:39.129Z,18.44
2022-09-28T13:00:11.955Z,18.36
2022-09-28T13:03:07.515Z,18.59
2022-09-28T13:06:04.412Z,18.56
2022-09-28T13:08:42.802Z,19.25
2022-09-28T13:11:21.632Z,18.82
2022-09-28T13:14:00.086Z,18.07
2022-09-28T13:16:35.458Z,17.93
2022-09-28T13:19:13.410Z,18.89
2022-09-28T13:21:48.001Z,18.27
2022-09-28T13:24:32.671Z,18.37
2022-09-28T13:27:08.437Z,18.87
2022-09-28T13:29:37.125Z,18.73
2022-09-28T13:32:05.789Z,19.44
2022-09-28T13:34:37.435Z,18.60
2022-09-28T13:37:21.936Z,19.06
2022-09-28T13:39:52.818Z,19.17
2022-09-28T13:42:51.355Z,19.35
2022-09-28T13:45:30.558Z,19.22
2022-09-28T13:48:13.086Z,18.94
2022-09-28T13:51:07.534Z,18.70
2022-09-28T13:53:57.847Z,18.49
2022-09-28T13:56:35.921Z,18.97
2022-09-28T13:59:16.218Z,18.59
2022-09-28T14:01:51.637Z,19.26
2022-09-28T14:04:22.426Z,19.38
2022-09-28T14:06:55.475Z,18.81
2022-09-28T14:09:28.483Z,18.57
2022-09-28T14:12:01.867Z,18.10
2022-09-28T14:14:45.018Z,18.16
2022-09-28T14:17:50.349Z,17.74
2022-09-28T14:20:20.561Z,17.87
2022-09-28T14:23:03.360Z,18.23
2022-09-28T14:25:37.401Z,17.60
2022-09-28T14:28:23.177Z,18.26
2022-09-28T14:30:54.048Z,18.40
2022-09-28T14:33:28.715Z,18.12
2022-09-28T14:35:59.312Z,18.00
2022-09-28T14:38:50.265Z,17.15
2022-09-28T14:41:33.781Z,17.96
2022-09-28T14:44:04.819Z,18.17
2022-09-28T14:46:45.470Z,18.10
2022-09-28T14:49:53.355Z,18.67
2022-09-28T14:52:40.871Z,18.35
2022-09-28T14:55:15.288Z,18.37
2022-09-28T14:57:44.570Z,18.85
2022-09-28T15:00:22.154Z,18.26
2022-09-28T15:02:52.728Z,18.47
2022-09-28T15:05:25.234Z,18.26
2022-09-28T15:07:54.260Z,18.17
2022-09-28T15:10:31.552Z,18.76
2022-09-28T15:13:02.473Z,18.54
2022-09-28T15:15:34.809Z,18.90
2022-09-28T15:18:22.016Z,19.11
2022-09-28T15:20:50.494Z,18.85
2022-09-28T15:23:34.602Z,19.29
2022-09-28T15:26:03.475Z,18.52
2022-09-28T15:28:35.961Z,17.51
2022-09-28T15:31:05.331Z,18.38
2022-09-28T15:33:52.816Z,18.69
2022-09-28T15:36:23.077Z,18.78
2022-09-28T15:38:57.249Z,17.79
2022-09-28T15:41:26.408Z,17.78
2022-09-28T15:44:14.722Z,17.77
2022-09-28T15:46:44.809Z,17.14
2022-09-28T15:49:25.929Z,17.50
2022-09-28T15:51:56.332Z,17.16
2022-09-28T15:54:27.886Z,17.20
2022-09-28T15:56:59.685Z,17.02
2022-09-28T15:59:33.181Z,17.25
2022-09-28T16:02:11.401Z,16.52
2022-09-28T16:04:50.689Z,16.54
2022-09-28T16:07:25.437Z,16.41
2022-09-28T16:10:03.201Z,16.43
2022-09-28T16:12:42.207Z,16.81
2022-09-28T16:15:20.195Z,16.55
2022-09-28T16:17:52.909Z,16.27
2022-09-28T16:20:29.756Z,15.68
2022-09-28T16:23:03.513Z,15.86
2022-09-28T16:25:31.398Z,15.29
2022-09-28T16:27:59.153Z,15.16
2022-09-28T16:30:30.367Z,14.94
2022-09-28T16:33:01.245Z,14.76
2022-09-28T16:35:32.138Z,14.54
2022-09-28T16:38:06.934Z,14.48
2022-09-28T16:40:35.266Z,14.41
2022-09-28T16:43:06.695Z,13.96
2022-09-28T16:45:39.934Z,13.87
2022-09-28T16:48:07.650Z,13.76
2022-09-28T16:50:35.361Z,13.71
2022-09-28T16:53:31.040Z,13.71
2022-09-28T16:56:00.214Z,13.89
2022-09-28T16:58:28.858Z,13.83
2022-09-28T17:00:58.323Z,13.92
2022-09-28T17:03:26.635Z,13.63
2022-09-28T17:05:55.204Z,13.29
2022-09-28T17:08:25.014Z,13.15
2022-09-28T17:11:16.594Z,12.86
2022-09-28T17:13:42.456Z,13.01
2022-09-28T17:16:15.780Z,12.54
2022-09-28T17:18:43.546Z,12.49
2022-09-28T17:21:16.064Z,12.53
2022-09-28T17:23:44.050Z,12.61
2022-09-28T17:26:20.440Z,12.69
2022-09-28T17:28:48.344Z,12.54
2022-09-28T17:31:18.384Z,12.41
2022-09-28T17:33:46.149Z,12.43
2022-09-28T17:36:17.057Z,12.57
2022-09-28T17:38:45.597Z,12.48
2022-09-28T17:41:19.996Z,12.52
2022-09-28T17:43:48.714Z,12.56
2022-09-28T17:46:27.561Z,12.58
2022-09-28T17:48:57.512Z,12.62
2022-09-28T17:51:25.598Z,12.54
2022-09-28T17:53:54.361Z,12.40
2022-09-28T17:56:22.392Z,12.23
2022-09-28T17:58:50.179Z,12.37
2022-09-28T18:01:18.315Z,12.34
2022-09-28T18:03:47.534Z,12.33
2022-09-28T18:06:19.717Z,12.24
2022-09-28T18:08:47.740Z,12.27
2022-09-28T18:11:17.633Z,12.39
2022-09-28T18:13:46.026Z,12.32
2022-09-28T18:16:14.650Z,12.14
2022-09-28T18:18:42.524Z,12.12
2022-09-28T18:21:11.672Z,12.11
2022-09-28T18:23:40.160Z,12.08
2022-09-28T18:26:11.929Z,12.16
2022-09-28T18:28:39.825Z,12.07
2022-09-28T18:31:11.559Z,12.03
2022-09-28T18:33:40.370Z,11.91
2022-09-28T18:36:09.277Z,11.88
2022-09-28T18:38:39.157Z,11.80
2022-09-28T18:41:10.433Z,11.66
2022-09-28T18:43:38.558Z,11.66
2022-09-28T18:46:08.260Z,11.60
2022-09-28T18:48:36.905Z,11.54
2022-09-28T18:51:08.795Z,11.60
2022-09-28T18:53:37.829Z,11.73
2022-09-28T18:56:10.221Z,11.69
2022-09-28T18:58:38.638Z,11.46
2022-09-28T19:01:29.061Z,11.41
2022-09-28T19:03:59.759Z,11.48
2022-09-28T19:06:27.512Z,11.26
2022-09-28T19:08:57.383Z,11.26
2022-09-28T19:11:26.264Z,11.26
2022-09-28T19:13:54.781Z,11.18
2022-09-28T19:16:24.873Z,11.18
2022-09-28T19:18:53.576Z,11.21
2022-09-28T19:21:21.783Z,11.01
2022-09-28T19:23:50.678Z,11.05
2022-09-28T19:26:21.875Z,11.21
2022-09-28T19:28:50.048Z,11.22
2022-09-28T19:31:18.574Z,11.35
2022-09-28T19:33:46.755Z,11.33
2022-09-28T19:36:18.624Z,11.30
2022-09-28T19:38:46.965Z,-142.05
2022-09-28T19:41:40.762Z,-142.05
2022-09-28T19:44:15.775Z,-142.05
2022-09-28T19:46:44.409Z,-142.05
2022-09-28T19:49:13.904Z,-142.05
2022-09-28T19:52:11.010Z,-142.05
2022-09-28T19:54:36.310Z,-142.05
2022-09-28T19:57:07.455Z,-142.05
2022-09-28T20:03:40.085Z,23.21
2022-09-28T20:06:08.255Z,16.77
2022-09-28T20:45:39.739Z,24.12
2022-09-28T20:53:02.503Z,19.47
2022-09-28T20:55:30.915Z,16.07
2022-09-28T20:58:03.277Z,14.19
2022-09-28T21:00:31.249Z,12.81
2022-09-28T21:02:59.173Z,12.17
2022-09-28T21:05:27.860Z,11.47
2022-09-28T21:07:55.907Z,11.06
2022-09-28T21:10:25.265Z,10.43
2022-09-28T21:12:53.336Z,10.13
2022-09-28T21:15:21.217Z,10.01
2022-09-28T21:17:49.219Z,9.91
2022-09-28T21:20:17.485Z,9.86
2022-09-28T21:22:45.421Z,9.75
2022-09-28T21:25:13.940Z,9.49
2022-09-28T21:27:43.210Z,9.52
2022-09-28T21:30:12.643Z,9.54
2022-09-28T21:32:40.696Z,9.34
2022-09-28T21:35:10.444Z,9.41
2022-09-28T21:37:38.578Z,9.12
2022-09-28T21:40:10.195Z,9.09
2022-09-28T21:42:38.224Z,8.98
2022-09-28T21:45:08.996Z,8.77
2022-09-28T21:47:37.039Z,8.52
2022-09-28T21:50:07.079Z,8.41
2022-09-28T21:52:34.926Z,8.26
2022-09-28T21:55:03.741Z,7.97
2022-09-28T21:57:31.829Z,8.18
2022-09-28T22:00:00.129Z,8.32
2022-09-28T22:02:30.670Z,8.04
2022-09-28T22:04:59.696Z,7.88
2022-09-28T22:07:27.666Z,7.77
2022-09-28T22:09:56.261Z,7.73
2022-09-28T22:12:24.205Z,7.68
2022-09-28T22:14:52.370Z,7.63
2022-09-28T22:17:20.301Z,7.76
2022-09-28T22:19:50.222Z,7.76
2022-09-28T22:22:18.293Z,7.71
2022-09-28T22:24:46.519Z,7.74
2022-09-28T22:27:15.445Z,7.79
2022-09-28T22:29:44.461Z,7.72
2022-09-28T22:32:15.080Z,7.65
2022-09-28T22:34:43.338Z,7.54
2022-09-28T22:37:12.522Z,7.44
2022-09-28T22:39:41.597Z,7.39
2022-09-28T22:42:09.545Z,7.34
2022-09-28T22:44:38.159Z,7.40
2022-09-28T22:47:06.248Z,7.35
2022-09-28T22:49:34.763Z,7.38
2022-09-28T22:52:02.945Z,7.41
2022-09-28T22:54:33.158Z,7.44
2022-09-28T22:57:01.051Z,7.49
2022-09-28T22:59:29.898Z,7.59
2022-09-28T23:01:57.791Z,7.68
2022-09-28T23:04:26.485Z,7.67
2022-09-28T23:06:54.301Z,7.55
2022-09-28T23:09:22.569Z,7.40
2022-09-28T23:11:51.796Z,7.50
2022-09-28T23:14:20.264Z,7.60
2022-09-28T23:16:48.066Z,7.49
2022-09-28T23:19:17.323Z,7.51
2022-09-28T23:21:45.368Z,7.43
2022-09-28T23:24:13.806Z,7.39
2022-09-28T23:26:44.015Z,7.57
2022-09-28T23:29:14.036Z,7.64
2022-09-28T23:31:42.220Z,7.50
2022-09-28T23:34:12.207Z,7.58
2022-09-28T23:36:40.822Z,7.61
2022-09-28T23:39:11.975Z,7.68
2022-09-28T23:41:40.383Z,7.69
2022-09-28T23:44:08.883Z,7.66
2022-09-28T23:46:38.768Z,7.62
2022-09-28T23:49:07.901Z,7.77
2022-09-28T23:51:35.795Z,7.75
2022-09-28T23:54:06.944Z,7.69
2022-09-28T23:56:34.899Z,7.65
2022-09-28T23:59:03.484Z,7.72
